• Join FlightAware (Why Join?)
  • Login
  • US Flag 
01:46AM EDT


 

Airport Tracker/Info


-or-


 

Live Flight TrackerFlight Track Log ✈ SWA1619 ✈ 24-Apr-2013 ✈ KHOU - KBNA

Flight Track Log - Related Links

Times and Time Zones

All times are in EDT time to prevent confusion due to time zone crossing. See the SWA1619 flight status page for this flight to view local times or setup timezone preferences in your user account.

Time Position Orientation Groundspeed Altitude Reporting Facility
EDT Latitude Longitude Course Direction KTS MPH feet Rate Location/Type
08:19AM 29.6522 -95.2894 North 150 173 800  Level Houston Center
08:21AM 29.7757 -95.2667 North  Level FlightAware Approximate
08:22AM 29.7775 -95.2836 North 245 282 6,600  Level Houston Center
08:23AM 29.8594 -95.2878 357° North 286 329 10,800 3,600 Climbing Houston Center
08:24AM 29.9508 -95.2878 360° North 323 372 14,000 3,000 Climbing Houston Center
08:25AM 30.0417 -95.2317 28° Northeast 364 419 17,000 2,880 Climbing Houston Center
08:26AM 30.1406 -95.1717 28° Northeast 390 449 20,000 2,820 Climbing Houston Center
08:27AM 30.2414 -95.1089 28° Northeast 405 466 22,800 2,460 Climbing Houston Center
08:28AM 30.3453 -95.0436 28° Northeast 419 482 25,100 2,460 Climbing Houston Center
08:29AM 30.4692 -94.9558 31° Northeast 425 489 27,900 2,760 Climbing Houston Center
08:30AM 30.5714 -94.8778 33° Northeast 435 501 30,800 2,160 Climbing Houston Center
08:31AM 30.6725 -94.8008 33° Northeast 437 503 32,300 1,260 Climbing Houston Center
08:32AM 30.7764 -94.7197 34° Northeast 444 511 33,500 1,020 Climbing Houston Center
08:33AM 30.8872 -94.6336 34° Northeast 471 542 34,500 1,260 Climbing Houston Center
08:33AM 30.9336 -94.5969 34° Northeast 484 557 35,200 1,560 Climbing Fort Worth Center
08:34AM 31.0483 -94.5086 33° Northeast 484 557 36,600 1,380 Climbing Fort Worth Center
08:35AM 31.1614 -94.4250 32° Northeast 484 557 38,000 1,200 Climbing Fort Worth Center
08:36AM 31.2739 -94.3314 35° Northeast 482 555 39,000 480 Climbing Fort Worth Center
08:37AM 31.3783 -94.2525 33° Northeast 487 560 39,000  Level Fort Worth Center
08:38AM 31.4911 -94.1658 33° Northeast 487 560 39,000  Level Fort Worth Center
08:39AM 31.6033 -94.0742 35° Northeast 487 560 39,000  Level Fort Worth Center
08:40AM 31.7261 -93.9819 33° Northeast 480 552 39,000  Level Fort Worth Center
08:41AM 31.8386 -93.8922 34° Northeast 480 552 39,000  Level Fort Worth Center
08:42AM 31.9406 -93.8100 34° Northeast 480 552 39,000  Level Fort Worth Center
08:43AM 32.0611 -93.7169 33° Northeast 480 552 39,000  Level Fort Worth Center
08:44AM 32.1711 -93.6289 34° Northeast 474 545 39,000  Level Fort Worth Center
08:45AM 32.2789 -93.5336 37° Northeast 481 554 39,000  Level Fort Worth Center
08:46AM 32.3908 -93.4450 34° Northeast 481 554 39,000  Level Fort Worth Center
08:47AM 32.5031 -93.3564 34° Northeast 481 554 39,000  Level Fort Worth Center
08:48AM 32.6128 -93.2678 34° Northeast 481 554 39,000  Level Fort Worth Center
08:49AM 32.7267 -93.1761 34° Northeast 477 549 39,000  Level Fort Worth Center
08:50AM 32.8425 -93.0842 34° Northeast 482 555 39,000  Level Fort Worth Center
08:51AM 32.9539 -92.9919 35° Northeast 482 555 39,000  Level Fort Worth Center
08:52AM 33.0656 -92.8997 35° Northeast 482 555 39,000  Level Fort Worth Center
08:53AM 33.1811 -92.8094 33° Northeast 482 555 39,000  Level Fort Worth Center
08:56AM 33.4089 -92.5197 47° Northeast 510 587 39,000  Level Memphis Center
08:57AM 33.4947 -92.3850 53° Northeast 510 587 39,000  Level Memphis Center
08:58AM 33.5844 -92.2497 51° Northeast 510 587 39,000  Level Memphis Center
08:59AM 33.6719 -92.1169 52° Northeast 510 587 39,000  Level Memphis Center
09:00AM 33.7594 -91.9814 52° Northeast 510 587 39,000  Level Memphis Center
09:01AM 33.8425 -91.8478 53° Northeast 510 587 39,000  Level Memphis Center
09:02AM 33.9358 -91.7142 50° Northeast 510 587 39,000  Level Memphis Center
09:03AM 34.0272 -91.5653 53° Northeast 505 581 39,000  Level Memphis Center
09:04AM 34.1139 -91.4283 53° Northeast 510 587 39,000  Level Memphis Center
09:05AM 34.2006 -91.2939 52° Northeast 510 587 39,000  Level Memphis Center
09:06AM 34.2892 -91.1542 52° Northeast 515 593 39,000  Level Memphis Center
09:07AM 34.3733 -91.0164 53° Northeast 515 593 39,000  Level Memphis Center
09:08AM 34.4639 -90.8786 51° Northeast 520 598 39,000  Level Memphis Center
09:09AM 34.5478 -90.7378 54° Northeast 520 598 39,000  Level Memphis Center
09:10AM 34.6358 -90.5919 54° Northeast 520 598 39,000  Level Memphis Center
09:11AM 34.7236 -90.4556 52° Northeast 519 597 39,000  Level Memphis Center
09:12AM 34.8008 -90.3267 54° Northeast 524 603 39,000  Level Memphis Center
09:13AM 34.8883 -90.1900 52° Northeast 524 603 39,000  Level Memphis Center
09:14AM 34.9819 -90.0478 51° Northeast 524 603 39,000  Level Memphis Center
09:15AM 35.0606 -89.8725 61° Northeast 524 603 39,000  Level Memphis Center
09:16AM 35.1142 -89.6997 69° East 532 612 39,000  Level Memphis Center
09:17AM 35.1694 -89.5317 68° East 538 619 39,000  Level Memphis Center
09:18AM 35.2225 -89.3658 69° East 531 611 39,000 -420 Level Memphis Center
09:19AM 35.2794 -89.1972 67° East 531 611 38,200 -1,620 Descending Memphis Center
09:20AM 35.3319 -89.0336 68° East 525 604 35,800 -2,340 Descending Memphis Center
09:21AM 35.3783 -88.8928 68° East 514 592 33,600 -2,160 Descending Memphis Center
09:22AM 35.4264 -88.7364 69° East 498 573 31,500 -2,100 Descending Memphis Center
09:23AM 35.4722 -88.5853 70° East 485 558 29,500 -1,980 Descending Memphis Center
09:24AM 35.5244 -88.4386 66° East 472 543 27,600 -1,920 Descending Memphis Center
09:25AM 35.5700 -88.2947 69° East 459 528 25,700 -2,040 Descending Memphis Center
09:26AM 35.6175 -88.1453 69° East 435 501 23,600 4,620 Descending Memphis Center
09:27AM 35.6569 -88.0242 68° East 425 489 35,000 -1,320 Climbing Memphis Center
09:28AM 35.7003 -87.8900 68° East 417 480 21,000 -8,160 Descending Memphis Center
09:29AM 35.7478 -87.7633 65° Northeast 407 468 18,700 -2,400 Descending Memphis Center
09:30AM 35.7950 -87.6364 65° Northeast 401 461 16,200 -2,580 Descending Memphis Center
09:31AM 35.8422 -87.5094 65° Northeast 401 461 13,600 -2,280 Descending Memphis Center
09:32AM 35.8892 -87.3744 67° East 401 461 11,700 -1,380 Descending Memphis Center
09:33AM 35.9300 -87.2578 67° East 383 441 10,900 -420 Descending Memphis Center
09:34AM 35.9689 -87.1486 66° East 358 412 10,900 -360 Level Memphis Center
09:35AM 36.0036 -87.0342 69° East 358 412 10,200 -960 Descending Memphis Center
09:36AM 36.0317 -86.9178 73° East 352 405 9,000 -1,440 Descending Memphis Center
09:37AM 36.0681 -86.8058 68° East 347 399 7,400 -1,500 Descending Memphis Center
09:38AM 36.1500 -86.7558 26° Northeast 317 365 6,000 -960 Descending Memphis Center
09:39AM 36.2319 -86.7058 26° Northeast 312 359 5,500 -600 Descending Memphis Center
09:40AM 36.2267 -86.6033 94° East 271 312 4,900 -300 Descending Memphis Center
09:41AM 36.1928 -86.5097 114° Southeast 259 298 4,900  Level Memphis Center
09:42AM 36.1464 -86.4269 125° Southeast 277 319 4,900 -60 Level Memphis Center
09:43AM 36.1128 -86.3567 121° Southeast 288 331 4,800 -300 Descending Memphis Center
09:44AM 36.0769 -86.2839 121° Southeast 264 304 4,300 -480 Descending Memphis Center
09:45AM 36.0475 -86.2136 117° Southeast 234 269 3,900 -180 Descending Memphis Center
09:46AM 35.9833 -86.1833 159° South 161 185 3,900  Level Nashville TRACON
09:47AM 35.9833 -86.2500 270° West 199 229 3,900  Level Nashville TRACON
09:48AM 36.0000 -86.3167 287° West 192 221 3,900  Level Nashville TRACON
09:49AM 36.0167 -86.3833 287° West 188 216 3,900 -420 Level Nashville TRACON
09:50AM 36.0167 -86.4500 270° West 189 217 3,100 -660 Descending Nashville TRACON
09:51AM 36.0167 -86.5167 270° West 214 246 2,600 -300 Descending Nashville TRACON
09:52AM 36.0500 -86.5667 310° West 168 193 2,500 -360 Descending Nashville TRACON
09:53AM 36.0833 -86.6000 321° Northwest 148 170 1,900 -600 Descending Nashville TRACON
09:54AM 36.1000 -86.6333 302° West 118 136 1,300 -600 Descending Nashville TRACON
09:56AM 36.1167 -86.6667 292° West  Level FlightAware Approximate